sensor_id;sensor_type;location;lat;lon;timestamp;temperature;humidity
31263;DHT22;17892;52.080;9.006;2022-08-01T00:00:33;20.80;99.90
31263;DHT22;17892;52.080;9.006;2022-08-01T00:02:59;20.80;99.90
31263;DHT22;17892;52.080;9.006;2022-08-01T00:05:25;20.80;99.90
31263;DHT22;17892;52.080;9.006;2022-08-01T00:07:51;20.80;99.90
31263;DHT22;17892;52.080;9.006;2022-08-01T00:10:17;20.80;99.90
31263;DHT22;17892;52.080;9.006;2022-08-01T00:12:44;20.80;99.90
31263;DHT22;17892;52.080;9.006;2022-08-01T00:15:12;20.70;99.90
31263;DHT22;17892;52.080;9.006;2022-08-01T00:17:39;20.70;99.90
31263;DHT22;17892;52.080;9.006;2022-08-01T00:20:07;20.70;99.90
31263;DHT22;17892;52.080;9.006;2022-08-01T00:22:35;20.70;99.90
31263;DHT22;17892;52.080;9.006;2022-08-01T00:25:02;20.70;99.90
31263;DHT22;17892;52.080;9.006;2022-08-01T00:27:29;20.60;99.90
31263;DHT22;17892;52.080;9.006;2022-08-01T00:29:54;20.60;99.90
31263;DHT22;17892;52.080;9.006;2022-08-01T00:32:20;20.60;99.90
31263;DHT22;17892;52.080;9.006;2022-08-01T00:34:46;20.60;99.90
31263;DHT22;17892;52.080;9.006;2022-08-01T00:37:11;20.60;99.90
31263;DHT22;17892;52.080;9.006;2022-08-01T00:39:37;20.60;99.90
31263;DHT22;17892;52.080;9.006;2022-08-01T00:42:07;20.60;99.90
31263;DHT22;17892;52.080;9.006;2022-08-01T00:44:34;20.50;99.90
31263;DHT22;17892;52.080;9.006;2022-08-01T00:47:00;20.50;99.90
31263;DHT22;17892;52.080;9.006;2022-08-01T00:49:27;20.50;99.90
31263;DHT22;17892;52.080;9.006;2022-08-01T00:51:53;20.50;99.90
31263;DHT22;17892;52.080;9.006;2022-08-01T00:54:19;20.50;99.90
31263;DHT22;17892;52.080;9.006;2022-08-01T00:56:45;20.50;99.90
31263;DHT22;17892;52.080;9.006;2022-08-01T00:59:12;20.50;99.90
31263;DHT22;17892;52.080;9.006;2022-08-01T01:01:37;20.50;99.90
31263;DHT22;17892;52.080;9.006;2022-08-01T01:04:03;20.50;99.90
31263;DHT22;17892;52.080;9.006;2022-08-01T01:06:57;20.50;99.90
31263;DHT22;17892;52.080;9.006;2022-08-01T01:12:46;20.50;99.90
31263;DHT22;17892;52.080;9.006;2022-08-01T01:20:33;20.50;99.90
31263;DHT22;17892;52.080;9.006;2022-08-01T01:29:22;20.50;99.90
31263;DHT22;17892;52.080;9.006;2022-08-01T01:32:17;20.50;99.90
31263;DHT22;17892;52.080;9.006;2022-08-01T01:34:48;20.50;99.90
31263;DHT22;17892;52.080;9.006;2022-08-01T01:37:18;20.50;99.90
31263;DHT22;17892;52.080;9.006;2022-08-01T01:39:46;20.50;99.90
31263;DHT22;17892;52.080;9.006;2022-08-01T01:42:16;20.50;99.90
31263;DHT22;17892;52.080;9.006;2022-08-01T01:44:47;20.50;99.90
31263;DHT22;17892;52.080;9.006;2022-08-01T01:47:16;20.50;99.90
31263;DHT22;17892;52.080;9.006;2022-08-01T01:49:45;20.50;99.90
31263;DHT22;17892;52.080;9.006;2022-08-01T01:52:13;20.50;99.90
31263;DHT22;17892;52.080;9.006;2022-08-01T01:54:46;20.50;99.90
31263;DHT22;17892;52.080;9.006;2022-08-01T01:57:14;20.50;99.90
31263;DHT22;17892;52.080;9.006;2022-08-01T01:59:41;20.50;99.90
31263;DHT22;17892;52.080;9.006;2022-08-01T02:02:08;20.50;99.90
31263;DHT22;17892;52.080;9.006;2022-08-01T02:04:36;20.40;99.90
31263;DHT22;17892;52.080;9.006;2022-08-01T02:07:06;20.50;99.90
31263;DHT22;17892;52.080;9.006;2022-08-01T02:09:35;20.40;99.90
31263;DHT22;17892;52.080;9.006;2022-08-01T02:12:03;20.40;99.90
31263;DHT22;17892;52.080;9.006;2022-08-01T02:14:33;20.40;99.90
31263;DHT22;17892;52.080;9.006;2022-08-01T02:17:01;20.40;99.90
31263;DHT22;17892;52.080;9.006;2022-08-01T02:19:29;20.40;99.90
31263;DHT22;17892;52.080;9.006;2022-08-01T02:21:59;20.40;99.90
31263;DHT22;17892;52.080;9.006;2022-08-01T02:24:32;20.40;99.90
31263;DHT22;17892;52.080;9.006;2022-08-01T02:27:14;20.40;99.90
31263;DHT22;17892;52.080;9.006;2022-08-01T02:29:45;20.40;99.90
31263;DHT22;17892;52.080;9.006;2022-08-01T02:32:27;20.40;99.90
31263;DHT22;17892;52.080;9.006;2022-08-01T02:34:57;20.40;99.90
31263;DHT22;17892;52.080;9.006;2022-08-01T02:37:26;20.40;99.90
31263;DHT22;17892;52.080;9.006;2022-08-01T02:39:55;20.40;99.90
31263;DHT22;17892;52.080;9.006;2022-08-01T02:42:22;20.40;99.90
31263;DHT22;17892;52.080;9.006;2022-08-01T02:44:50;20.40;99.90
31263;DHT22;17892;52.080;9.006;2022-08-01T02:47:19;20.40;99.90
31263;DHT22;17892;52.080;9.006;2022-08-01T02:49:48;20.40;99.90
31263;DHT22;17892;52.080;9.006;2022-08-01T02:52:16;20.40;99.90
31263;DHT22;17892;52.080;9.006;2022-08-01T02:54:44;20.30;99.90
31263;DHT22;17892;52.080;9.006;2022-08-01T02:57:13;20.30;99.90
31263;DHT22;17892;52.080;9.006;2022-08-01T02:59:41;20.20;99.90
31263;DHT22;17892;52.080;9.006;2022-08-01T03:02:08;20.20;99.90
31263;DHT22;17892;52.080;9.006;2022-08-01T03:04:36;20.20;99.90
31263;DHT22;17892;52.080;9.006;2022-08-01T03:07:05;20.20;99.90
31263;DHT22;17892;52.080;9.006;2022-08-01T03:09:35;20.20;99.90
31263;DHT22;17892;52.080;9.006;2022-08-01T03:12:06;20.20;99.90
31263;DHT22;17892;52.080;9.006;2022-08-01T03:14:45;20.10;99.90
31263;DHT22;17892;52.080;9.006;2022-08-01T03:17:12;20.10;99.90
31263;DHT22;17892;52.080;9.006;2022-08-01T03:19:39;20.10;99.90
31263;DHT22;17892;52.080;9.006;2022-08-01T03:22:09;20.00;99.90
31263;DHT22;17892;52.080;9.006;2022-08-01T03:24:38;20.10;99.90
31263;DHT22;17892;52.080;9.006;2022-08-01T03:27:06;20.00;99.90
31263;DHT22;17892;52.080;9.006;2022-08-01T03:29:33;20.00;99.90
31263;DHT22;17892;52.080;9.006;2022-08-01T03:32:00;20.00;99.90
31263;DHT22;17892;52.080;9.006;2022-08-01T03:34:27;20.00;99.90
31263;DHT22;17892;52.080;9.006;2022-08-01T03:36:59;20.00;99.90
31263;DHT22;17892;52.080;9.006;2022-08-01T03:39:33;20.00;99.90
31263;DHT22;17892;52.080;9.006;2022-08-01T03:42:09;20.00;99.90
31263;DHT22;17892;52.080;9.006;2022-08-01T03:44:45;20.00;99.90
31263;DHT22;17892;52.080;9.006;2022-08-01T03:47:14;20.00;99.90
31263;DHT22;17892;52.080;9.006;2022-08-01T03:49:43;20.00;99.90
31263;DHT22;17892;52.080;9.006;2022-08-01T03:52:11;20.00;99.90
31263;DHT22;17892;52.080;9.006;2022-08-01T03:54:43;20.00;99.90
31263;DHT22;17892;52.080;9.006;2022-08-01T03:57:13;20.00;99.90
31263;DHT22;17892;52.080;9.006;2022-08-01T03:59:40;20.00;99.90
31263;DHT22;17892;52.080;9.006;2022-08-01T04:02:06;20.00;99.90
31263;DHT22;17892;52.080;9.006;2022-08-01T04:04:32;20.00;99.90
31263;DHT22;17892;52.080;9.006;2022-08-01T04:06:58;20.10;99.90
31263;DHT22;17892;52.080;9.006;2022-08-01T04:09:32;20.10;99.90
31263;DHT22;17892;52.080;9.006;2022-08-01T04:11:59;20.10;99.90
31263;DHT22;17892;52.080;9.006;2022-08-01T04:14:27;20.10;99.90
31263;DHT22;17892;52.080;9.006;2022-08-01T04:16:53;20.10;99.90
31263;DHT22;17892;52.080;9.006;2022-08-01T04:19:19;20.10;99.90
31263;DHT22;17892;52.080;9.006;2022-08-01T04:21:45;20.10;99.90
31263;DHT22;17892;52.080;9.006;2022-08-01T04:24:15;20.10;99.90
31263;DHT22;17892;52.080;9.006;2022-08-01T04:26:44;20.10;99.90
31263;DHT22;17892;52.080;9.006;2022-08-01T04:29:11;20.10;99.90
31263;DHT22;17892;52.080;9.006;2022-08-01T04:31:42;20.10;99.90
31263;DHT22;17892;52.080;9.006;2022-08-01T04:34:11;20.10;99.90
31263;DHT22;17892;52.080;9.006;2022-08-01T04:36:40;20.10;99.90
31263;DHT22;17892;52.080;9.006;2022-08-01T04:39:10;20.10;99.90
31263;DHT22;17892;52.080;9.006;2022-08-01T04:41:37;20.10;99.90
31263;DHT22;17892;52.080;9.006;2022-08-01T04:44:04;20.10;99.90
31263;DHT22;17892;52.080;9.006;2022-08-01T04:46:32;20.10;99.90
31263;DHT22;17892;52.080;9.006;2022-08-01T04:48:59;20.20;99.90
31263;DHT22;17892;52.080;9.006;2022-08-01T04:51:26;20.20;99.90
31263;DHT22;17892;52.080;9.006;2022-08-01T04:53:51;20.20;99.90
31263;DHT22;17892;52.080;9.006;2022-08-01T04:56:20;20.20;99.90
31263;DHT22;17892;52.080;9.006;2022-08-01T04:58:46;20.10;99.90
31263;DHT22;17892;52.080;9.006;2022-08-01T05:01:12;20.10;99.90
31263;DHT22;17892;52.080;9.006;2022-08-01T05:03:39;20.10;99.90
31263;DHT22;17892;52.080;9.006;2022-08-01T05:06:05;20.10;99.90
31263;DHT22;17892;52.080;9.006;2022-08-01T05:08:31;20.00;99.90
31263;DHT22;17892;52.080;9.006;2022-08-01T05:10:57;20.00;99.90
31263;DHT22;17892;52.080;9.006;2022-08-01T05:13:22;20.00;99.90
31263;DHT22;17892;52.080;9.006;2022-08-01T05:15:48;20.00;99.90
31263;DHT22;17892;52.080;9.006;2022-08-01T05:18:14;20.00;99.90
31263;DHT22;17892;52.080;9.006;2022-08-01T05:20:40;20.00;99.90
31263;DHT22;17892;52.080;9.006;2022-08-01T05:23:06;20.00;99.90
31263;DHT22;17892;52.080;9.006;2022-08-01T05:25:32;20.10;99.90
31263;DHT22;17892;52.080;9.006;2022-08-01T05:27:58;20.10;99.90
31263;DHT22;17892;52.080;9.006;2022-08-01T05:30:25;20.10;99.90
31263;DHT22;17892;52.080;9.006;2022-08-01T05:32:51;20.10;99.90
31263;DHT22;17892;52.080;9.006;2022-08-01T05:35:17;20.20;99.90
31263;DHT22;17892;52.080;9.006;2022-08-01T05:37:43;20.20;99.90
31263;DHT22;17892;52.080;9.006;2022-08-01T05:40:09;20.20;99.90
31263;DHT22;17892;52.080;9.006;2022-08-01T05:42:35;20.20;99.90
31263;DHT22;17892;52.080;9.006;2022-08-01T05:45:01;20.20;99.90
31263;DHT22;17892;52.080;9.006;2022-08-01T05:47:26;20.30;99.90
31263;DHT22;17892;52.080;9.006;2022-08-01T05:49:52;20.30;99.90
31263;DHT22;17892;52.080;9.006;2022-08-01T05:52:17;20.40;99.90
31263;DHT22;17892;52.080;9.006;2022-08-01T05:54:43;20.40;99.90
31263;DHT22;17892;52.080;9.006;2022-08-01T05:57:09;20.50;99.90
31263;DHT22;17892;52.080;9.006;2022-08-01T05:59:34;20.50;99.90
31263;DHT22;17892;52.080;9.006;2022-08-01T06:02:00;20.50;99.90
31263;DHT22;17892;52.080;9.006;2022-08-01T06:04:26;20.60;99.90
31263;DHT22;17892;52.080;9.006;2022-08-01T06:06:52;20.60;99.90
31263;DHT22;17892;52.080;9.006;2022-08-01T06:09:17;20.60;99.90
31263;DHT22;17892;52.080;9.006;2022-08-01T06:11:43;20.60;99.90
31263;DHT22;17892;52.080;9.006;2022-08-01T06:14:09;20.60;99.90
31263;DHT22;17892;52.080;9.006;2022-08-01T06:16:34;20.50;99.90
31263;DHT22;17892;52.080;9.006;2022-08-01T06:19:00;20.50;99.90
31263;DHT22;17892;52.080;9.006;2022-08-01T06:21:26;20.50;99.90
31263;DHT22;17892;52.080;9.006;2022-08-01T06:23:51;20.50;99.90
31263;DHT22;17892;52.080;9.006;2022-08-01T06:26:18;20.60;99.90
31263;DHT22;17892;52.080;9.006;2022-08-01T06:28:44;20.60;99.90
31263;DHT22;17892;52.080;9.006;2022-08-01T06:31:10;20.60;99.90
31263;DHT22;17892;52.080;9.006;2022-08-01T06:33:37;20.70;99.90
31263;DHT22;17892;52.080;9.006;2022-08-01T06:36:03;20.70;99.90
31263;DHT22;17892;52.080;9.006;2022-08-01T06:38:29;20.70;99.90
31263;DHT22;17892;52.080;9.006;2022-08-01T06:40:55;20.80;99.90
31263;DHT22;17892;52.080;9.006;2022-08-01T06:43:20;20.80;99.90
31263;DHT22;17892;52.080;9.006;2022-08-01T06:45:46;20.80;99.90
31263;DHT22;17892;52.080;9.006;2022-08-01T06:48:12;20.90;99.90
31263;DHT22;17892;52.080;9.006;2022-08-01T06:50:38;20.90;99.90
31263;DHT22;17892;52.080;9.006;2022-08-01T06:53:03;21.00;99.90
31263;DHT22;17892;52.080;9.006;2022-08-01T06:55:29;21.00;99.90
31263;DHT22;17892;52.080;9.006;2022-08-01T06:57:55;21.10;99.90
31263;DHT22;17892;52.080;9.006;2022-08-01T07:00:22;21.10;99.90
31263;DHT22;17892;52.080;9.006;2022-08-01T07:02:50;21.10;99.90
31263;DHT22;17892;52.080;9.006;2022-08-01T07:05:17;21.20;99.90
31263;DHT22;17892;52.080;9.006;2022-08-01T07:07:42;21.20;99.90
31263;DHT22;17892;52.080;9.006;2022-08-01T07:10:09;21.10;99.90
31263;DHT22;17892;52.080;9.006;2022-08-01T07:12:35;21.10;99.90
31263;DHT22;17892;52.080;9.006;2022-08-01T07:15:06;21.00;99.90
31263;DHT22;17892;52.080;9.006;2022-08-01T07:17:39;21.00;99.90
31263;DHT22;17892;52.080;9.006;2022-08-01T07:20:10;20.90;99.90
31263;DHT22;17892;52.080;9.006;2022-08-01T07:22:37;20.90;99.90
31263;DHT22;17892;52.080;9.006;2022-08-01T07:25:05;20.80;99.90
31263;DHT22;17892;52.080;9.006;2022-08-01T07:27:31;20.80;99.90
31263;DHT22;17892;52.080;9.006;2022-08-01T07:29:57;20.90;99.90
31263;DHT22;17892;52.080;9.006;2022-08-01T07:32:23;20.80;99.90
31263;DHT22;17892;52.080;9.006;2022-08-01T07:34:49;20.90;99.90
31263;DHT22;17892;52.080;9.006;2022-08-01T07:37:15;20.90;99.90
31263;DHT22;17892;52.080;9.006;2022-08-01T07:39:40;21.00;99.90
31263;DHT22;17892;52.080;9.006;2022-08-01T07:42:06;21.10;99.90
31263;DHT22;17892;52.080;9.006;2022-08-01T07:44:32;21.20;99.90
31263;DHT22;17892;52.080;9.006;2022-08-01T07:46:57;21.30;99.90
31263;DHT22;17892;52.080;9.006;2022-08-01T07:49:23;21.30;99.90
31263;DHT22;17892;52.080;9.006;2022-08-01T07:51:49;21.50;99.90
31263;DHT22;17892;52.080;9.006;2022-08-01T07:54:15;21.60;99.90
31263;DHT22;17892;52.080;9.006;2022-08-01T07:56:40;21.80;99.90
31263;DHT22;17892;52.080;9.006;2022-08-01T07:59:06;21.90;99.90
31263;DHT22;17892;52.080;9.006;2022-08-01T08:01:32;22.00;99.90
31263;DHT22;17892;52.080;9.006;2022-08-01T08:03:57;22.10;99.90
31263;DHT22;17892;52.080;9.006;2022-08-01T08:06:23;22.20;99.90
31263;DHT22;17892;52.080;9.006;2022-08-01T08:08:49;22.30;99.90
31263;DHT22;17892;52.080;9.006;2022-08-01T08:11:15;22.40;99.90
31263;DHT22;17892;52.080;9.006;2022-08-01T08:13:40;22.50;99.90
31263;DHT22;17892;52.080;9.006;2022-08-01T08:16:06;22.70;99.90
31263;DHT22;17892;52.080;9.006;2022-08-01T08:18:32;22.90;99.90
31263;DHT22;17892;52.080;9.006;2022-08-01T08:20:57;23.10;99.90
31263;DHT22;17892;52.080;9.006;2022-08-01T08:23:23;23.20;99.90
31263;DHT22;17892;52.080;9.006;2022-08-01T08:26:07;23.30;99.90
31263;DHT22;17892;52.080;9.006;2022-08-01T08:28:33;23.50;99.90
31263;DHT22;17892;52.080;9.006;2022-08-01T08:30:59;23.50;99.90
31263;DHT22;17892;52.080;9.006;2022-08-01T08:33:24;23.60;99.90
31263;DHT22;17892;52.080;9.006;2022-08-01T08:35:50;23.70;99.90
31263;DHT22;17892;52.080;9.006;2022-08-01T08:38:15;23.80;99.90
31263;DHT22;17892;52.080;9.006;2022-08-01T08:40:41;23.80;99.90
31263;DHT22;17892;52.080;9.006;2022-08-01T08:43:07;23.80;99.90
31263;DHT22;17892;52.080;9.006;2022-08-01T08:45:33;23.80;99.90
31263;DHT22;17892;52.080;9.006;2022-08-01T08:48:00;23.80;99.90
31263;DHT22;17892;52.080;9.006;2022-08-01T08:50:26;23.70;99.90
31263;DHT22;17892;52.080;9.006;2022-08-01T08:52:55;23.70;99.90
31263;DHT22;17892;52.080;9.006;2022-08-01T08:55:22;23.70;99.60
31263;DHT22;17892;52.080;9.006;2022-08-01T08:57:48;23.70;99.90
31263;DHT22;17892;52.080;9.006;2022-08-01T09:00:15;23.60;99.80
31263;DHT22;17892;52.080;9.006;2022-08-01T09:02:45;23.60;99.90
31263;DHT22;17892;52.080;9.006;2022-08-01T09:05:12;23.60;99.40
31263;DHT22;17892;52.080;9.006;2022-08-01T09:07:38;23.50;99.70
31263;DHT22;17892;52.080;9.006;2022-08-01T09:10:05;23.50;99.70
31263;DHT22;17892;52.080;9.006;2022-08-01T09:12:31;23.40;99.90
31263;DHT22;17892;52.080;9.006;2022-08-01T09:14:57;23.30;99.80
31263;DHT22;17892;52.080;9.006;2022-08-01T09:17:23;23.30;99.90
31263;DHT22;17892;52.080;9.006;2022-08-01T09:19:54;23.20;99.80
31263;DHT22;17892;52.080;9.006;2022-08-01T09:22:23;23.10;99.00
31263;DHT22;17892;52.080;9.006;2022-08-01T09:25:08;23.10;99.70
31263;DHT22;17892;52.080;9.006;2022-08-01T09:27:37;23.00;99.10
31263;DHT22;17892;52.080;9.006;2022-08-01T09:32:52;23.10;99.90
31263;DHT22;17892;52.080;9.006;2022-08-01T09:35:34;23.20;99.90
31263;DHT22;17892;52.080;9.006;2022-08-01T09:38:21;23.40;99.90
31263;DHT22;17892;52.080;9.006;2022-08-01T09:40:59;23.60;99.90
31263;DHT22;17892;52.080;9.006;2022-08-01T09:43:27;23.80;99.90
31263;DHT22;17892;52.080;9.006;2022-08-01T09:45:55;24.00;99.90
31263;DHT22;17892;52.080;9.006;2022-08-01T09:48:22;24.10;99.90
31263;DHT22;17892;52.080;9.006;2022-08-01T09:50:50;24.20;99.90
31263;DHT22;17892;52.080;9.006;2022-08-01T09:53:17;24.40;99.90
31263;DHT22;17892;52.080;9.006;2022-08-01T09:55:43;24.50;99.90
31263;DHT22;17892;52.080;9.006;2022-08-01T09:58:12;24.60;98.60
31263;DHT22;17892;52.080;9.006;2022-08-01T10:00:39;24.60;98.10
31263;DHT22;17892;52.080;9.006;2022-08-01T10:03:26;24.50;98.60
31263;DHT22;17892;52.080;9.006;2022-08-01T10:05:52;24.50;97.50
31263;DHT22;17892;52.080;9.006;2022-08-01T10:08:23;24.40;99.20
31263;DHT22;17892;52.080;9.006;2022-08-01T10:11:11;24.50;99.90
31263;DHT22;17892;52.080;9.006;2022-08-01T10:13:37;24.70;98.60
31263;DHT22;17892;52.080;9.006;2022-08-01T10:16:05;25.00;99.90
31263;DHT22;17892;52.080;9.006;2022-08-01T10:18:33;25.20;99.90
31263;DHT22;17892;52.080;9.006;2022-08-01T10:21:01;25.40;99.30
31263;DHT22;17892;52.080;9.006;2022-08-01T10:23:33;25.40;98.50
31263;DHT22;17892;52.080;9.006;2022-08-01T10:26:00;25.40;97.80
31263;DHT22;17892;52.080;9.006;2022-08-01T10:28:30;25.30;97.80
31263;DHT22;17892;52.080;9.006;2022-08-01T10:30:57;25.10;97.60
31263;DHT22;17892;52.080;9.006;2022-08-01T10:33:23;25.10;98.70
31263;DHT22;17892;52.080;9.006;2022-08-01T10:35:50;25.20;99.90
31263;DHT22;17892;52.080;9.006;2022-08-01T10:38:17;25.40;99.90
31263;DHT22;17892;52.080;9.006;2022-08-01T10:40:43;25.50;99.20
31263;DHT22;17892;52.080;9.006;2022-08-01T10:43:10;25.60;99.00
31263;DHT22;17892;52.080;9.006;2022-08-01T10:45:36;25.60;98.60
31263;DHT22;17892;52.080;9.006;2022-08-01T10:51:02;25.80;97.10
31263;DHT22;17892;52.080;9.006;2022-08-01T10:53:29;25.90;98.80
31263;DHT22;17892;52.080;9.006;2022-08-01T10:56:00;26.10;99.80
31263;DHT22;17892;52.080;9.006;2022-08-01T10:58:34;26.20;98.60
31263;DHT22;17892;52.080;9.006;2022-08-01T11:01:24;26.40;99.90
31263;DHT22;17892;52.080;9.006;2022-08-01T11:06:48;27.00;99.10
31263;DHT22;17892;52.080;9.006;2022-08-01T11:09:26;27.10;97.40
31263;DHT22;17892;52.080;9.006;2022-08-01T11:12:13;27.10;95.50
31263;DHT22;17892;52.080;9.006;2022-08-01T11:17:45;26.80;94.00
31263;DHT22;17892;52.080;9.006;2022-08-01T11:20:20;26.60;94.50
31263;DHT22;17892;52.080;9.006;2022-08-01T11:28:28;26.30;96.90
31263;DHT22;17892;52.080;9.006;2022-08-01T11:38:47;26.30;96.90
31263;DHT22;17892;52.080;9.006;2022-08-01T11:41:24;26.40;98.80
31263;DHT22;17892;52.080;9.006;2022-08-01T11:47:02;27.00;98.80
31263;DHT22;17892;52.080;9.006;2022-08-01T11:49:46;27.30;95.00
31263;DHT22;17892;52.080;9.006;2022-08-01T11:52:15;27.50;96.60
31263;DHT22;17892;52.080;9.006;2022-08-01T11:55:18;27.60;97.10
31263;DHT22;17892;52.080;9.006;2022-08-01T11:57:43;27.70;92.40
31263;DHT22;17892;52.080;9.006;2022-08-01T12:00:17;27.70;96.30
31263;DHT22;17892;52.080;9.006;2022-08-01T12:02:44;27.70;94.30
31263;DHT22;17892;52.080;9.006;2022-08-01T12:05:13;27.70;95.50
31263;DHT22;17892;52.080;9.006;2022-08-01T12:07:43;27.60;95.20
31263;DHT22;17892;52.080;9.006;2022-08-01T12:10:10;27.50;95.10
31263;DHT22;17892;52.080;9.006;2022-08-01T12:15:20;27.20;90.50
31263;DHT22;17892;52.080;9.006;2022-08-01T12:17:50;27.10;94.70
31263;DHT22;17892;52.080;9.006;2022-08-01T12:20:21;27.00;94.00
31263;DHT22;17892;52.080;9.006;2022-08-01T12:22:47;26.80;93.60
31263;DHT22;17892;52.080;9.006;2022-08-01T12:25:21;26.80;95.40
31263;DHT22;17892;52.080;9.006;2022-08-01T12:27:48;26.80;95.60
31263;DHT22;17892;52.080;9.006;2022-08-01T12:30:17;26.90;95.00
31263;DHT22;17892;52.080;9.006;2022-08-01T12:32:47;26.80;94.50
31263;DHT22;17892;52.080;9.006;2022-08-01T12:35:18;26.80;93.40
31263;DHT22;17892;52.080;9.006;2022-08-01T12:38:03;26.60;93.00
31263;DHT22;17892;52.080;9.006;2022-08-01T12:40:35;26.40;92.10
31263;DHT22;17892;52.080;9.006;2022-08-01T12:43:05;26.30;92.60
31263;DHT22;17892;52.080;9.006;2022-08-01T12:45:40;26.20;94.00
31263;DHT22;17892;52.080;9.006;2022-08-01T12:48:14;26.30;95.60
31263;DHT22;17892;52.080;9.006;2022-08-01T12:50:59;26.50;97.80
31263;DHT22;17892;52.080;9.006;2022-08-01T12:53:26;26.80;94.40
31263;DHT22;17892;52.080;9.006;2022-08-01T12:55:54;27.20;96.90
31263;DHT22;17892;52.080;9.006;2022-08-01T12:58:21;27.40;96.90
31263;DHT22;17892;52.080;9.006;2022-08-01T13:00:48;27.60;96.30
31263;DHT22;17892;52.080;9.006;2022-08-01T13:03:17;27.70;94.90
31263;DHT22;17892;52.080;9.006;2022-08-01T13:05:46;27.70;93.60
31263;DHT22;17892;52.080;9.006;2022-08-01T13:08:32;27.60;93.30
31263;DHT22;17892;52.080;9.006;2022-08-01T13:11:06;27.40;93.70
31263;DHT22;17892;52.080;9.006;2022-08-01T13:16:09;27.10;92.90
31263;DHT22;17892;52.080;9.006;2022-08-01T13:18:36;27.00;93.40
31263;DHT22;17892;52.080;9.006;2022-08-01T13:21:19;26.80;93.20
31263;DHT22;17892;52.080;9.006;2022-08-01T13:24:05;26.60;91.50
31263;DHT22;17892;52.080;9.006;2022-08-01T13:26:47;26.40;91.70
31263;DHT22;17892;52.080;9.006;2022-08-01T13:29:16;26.30;92.00
31263;DHT22;17892;52.080;9.006;2022-08-01T13:31:54;26.10;93.00
31263;DHT22;17892;52.080;9.006;2022-08-01T13:34:32;25.90;92.90
31263;DHT22;17892;52.080;9.006;2022-08-01T13:36:58;25.70;92.40
31263;DHT22;17892;52.080;9.006;2022-08-01T13:39:27;25.60;93.60
31263;DHT22;17892;52.080;9.006;2022-08-01T13:42:07;25.40;93.60
31263;DHT22;17892;52.080;9.006;2022-08-01T13:44:33;25.30;93.90
31263;DHT22;17892;52.080;9.006;2022-08-01T13:46:59;25.10;94.20
31263;DHT22;17892;52.080;9.006;2022-08-01T13:49:25;25.10;94.50
31263;DHT22;17892;52.080;9.006;2022-08-01T13:51:51;25.00;94.80
31263;DHT22;17892;52.080;9.006;2022-08-01T13:54:17;24.90;94.90
31263;DHT22;17892;52.080;9.006;2022-08-01T13:56:43;24.90;95.20
31263;DHT22;17892;52.080;9.006;2022-08-01T13:59:09;24.90;95.30
31263;DHT22;17892;52.080;9.006;2022-08-01T14:01:35;24.90;95.40
31263;DHT22;17892;52.080;9.006;2022-08-01T14:04:02;24.90;95.30
31263;DHT22;17892;52.080;9.006;2022-08-01T14:06:28;24.90;95.10
31263;DHT22;17892;52.080;9.006;2022-08-01T14:08:54;24.90;95.30
31263;DHT22;17892;52.080;9.006;2022-08-01T14:11:20;25.00;94.80
31263;DHT22;17892;52.080;9.006;2022-08-01T14:13:46;25.10;95.40
31263;DHT22;17892;52.080;9.006;2022-08-01T14:16:12;25.10;95.70
31263;DHT22;17892;52.080;9.006;2022-08-01T14:18:38;25.10;95.50
31263;DHT22;17892;52.080;9.006;2022-08-01T14:21:03;25.20;95.20
31263;DHT22;17892;52.080;9.006;2022-08-01T14:23:29;25.20;94.10
31263;DHT22;17892;52.080;9.006;2022-08-01T14:25:55;25.20;94.30
31263;DHT22;17892;52.080;9.006;2022-08-01T14:28:21;25.20;94.20
31263;DHT22;17892;52.080;9.006;2022-08-01T14:30:46;25.20;94.10
31263;DHT22;17892;52.080;9.006;2022-08-01T14:33:13;25.20;94.20
31263;DHT22;17892;52.080;9.006;2022-08-01T14:35:39;25.10;94.00
31263;DHT22;17892;52.080;9.006;2022-08-01T14:38:05;25.10;93.60
31263;DHT22;17892;52.080;9.006;2022-08-01T14:40:31;25.10;94.30
31263;DHT22;17892;52.080;9.006;2022-08-01T14:42:57;25.10;94.50
31263;DHT22;17892;52.080;9.006;2022-08-01T14:45:23;25.20;94.70
31263;DHT22;17892;52.080;9.006;2022-08-01T14:47:49;25.30;94.60
31263;DHT22;17892;52.080;9.006;2022-08-01T14:50:15;25.30;94.40
31263;DHT22;17892;52.080;9.006;2022-08-01T14:52:42;25.40;94.40
31263;DHT22;17892;52.080;9.006;2022-08-01T14:55:10;25.40;94.30
31263;DHT22;17892;52.080;9.006;2022-08-01T14:57:38;25.50;94.30
31263;DHT22;17892;52.080;9.006;2022-08-01T15:00:06;25.60;94.80
31263;DHT22;17892;52.080;9.006;2022-08-01T15:02:38;25.70;94.40
31263;DHT22;17892;52.080;9.006;2022-08-01T15:05:04;25.80;94.90
31263;DHT22;17892;52.080;9.006;2022-08-01T15:07:31;25.90;94.70
31263;DHT22;17892;52.080;9.006;2022-08-01T15:09:56;26.00;94.70
31263;DHT22;17892;52.080;9.006;2022-08-01T15:12:22;26.10;93.90
31263;DHT22;17892;52.080;9.006;2022-08-01T15:14:48;26.10;93.90
31263;DHT22;17892;52.080;9.006;2022-08-01T15:17:15;26.10;93.60
31263;DHT22;17892;52.080;9.006;2022-08-01T15:19:45;26.10;93.70
31263;DHT22;17892;52.080;9.006;2022-08-01T15:22:12;26.10;93.10
31263;DHT22;17892;52.080;9.006;2022-08-01T15:24:38;26.00;93.20
31263;DHT22;17892;52.080;9.006;2022-08-01T15:27:04;26.00;93.30
31263;DHT22;17892;52.080;9.006;2022-08-01T15:29:30;25.90;93.30
31263;DHT22;17892;52.080;9.006;2022-08-01T15:31:57;25.80;93.40
31263;DHT22;17892;52.080;9.006;2022-08-01T15:34:23;25.80;93.50
31263;DHT22;17892;52.080;9.006;2022-08-01T15:36:50;25.80;93.50
31263;DHT22;17892;52.080;9.006;2022-08-01T15:39:16;25.70;93.60
31263;DHT22;17892;52.080;9.006;2022-08-01T15:41:42;25.70;93.20
31263;DHT22;17892;52.080;9.006;2022-08-01T15:44:08;25.70;93.70
31263;DHT22;17892;52.080;9.006;2022-08-01T15:46:34;25.70;93.60
31263;DHT22;17892;52.080;9.006;2022-08-01T15:49:04;25.60;93.70
31263;DHT22;17892;52.080;9.006;2022-08-01T15:51:30;25.70;93.10
31263;DHT22;17892;52.080;9.006;2022-08-01T15:53:56;25.70;93.90
31263;DHT22;17892;52.080;9.006;2022-08-01T15:56:22;25.70;93.70
31263;DHT22;17892;52.080;9.006;2022-08-01T15:58:49;25.70;93.50
31263;DHT22;17892;52.080;9.006;2022-08-01T16:01:16;25.60;93.50
31263;DHT22;17892;52.080;9.006;2022-08-01T16:03:42;25.60;93.50
31263;DHT22;17892;52.080;9.006;2022-08-01T16:06:08;25.60;93.40
31263;DHT22;17892;52.080;9.006;2022-08-01T16:08:34;25.60;93.80
31263;DHT22;17892;52.080;9.006;2022-08-01T16:11:00;25.60;93.90
31263;DHT22;17892;52.080;9.006;2022-08-01T16:13:26;25.70;93.80
31263;DHT22;17892;52.080;9.006;2022-08-01T16:15:52;25.80;94.20
31263;DHT22;17892;52.080;9.006;2022-08-01T16:18:18;25.80;94.20
31263;DHT22;17892;52.080;9.006;2022-08-01T16:20:44;25.90;93.90
31263;DHT22;17892;52.080;9.006;2022-08-01T16:23:09;25.90;93.80
31263;DHT22;17892;52.080;9.006;2022-08-01T16:25:35;25.90;93.40